Redding Ridge, Connecticut
Current Conditions -  °F | °C
As of 10:53 AM on Thursday 30 Oct 2014 (Local Time) from KDXR Reporting Station
Few Clouds Few Clouds  
Wind Chill: 52°   Ceiling: Unl
Heat Index: 52°   Visibility: 10mi
Dew Point: 40°   Wind: 5mph
Humidity: 63%   Direction: NA
Pressure: 29.99"   Gusts: NA
Location:  41.31°N, 73.35°W
Report Text: KDXR 301453Z VRB04KT 10SM FEW075 11/04 A2999 RMK AO2 SLP156 T01110044 50003
Loading
Personal Weather Stations






























Interactive Weather Map
Tropical Storm Tracking
New forecast layout! Learn more

10-Day Weather Forecast

Advertisements
Track Severe Weather on mobile